Aviation Digital Data Service (ADDS)

Output produced by METARs form (0532 UTC 19 March 2019)
found at http://www.aviationweather.gov/metar/data/
 
Forecast for: HDAM (AMBOULI DJIBOUTI, DJ)
Text: HDAM 182300Z 1900/1924 00000KT 9999 SCT020
Forecast period: 0000 to 0600 UTC 19 March 2019
Forecast type: FROM: standard forecast or significant change
Winds: calm
Visibility: 6 or more miles 10+ km)
Ceiling: at least 12,000 feet AGL
Clouds: scattered clouds at 2000 feet AGL
Weather: no significant weather forecast for this period
Text: BECMG 1906/1912 08010KT SCT023
Forecast period: 0600 to 1500 UTC 19 March 2019
Forecast type: BECOMING: Conditions expected to become as follows by 1200 UTC 19 March 2019
Winds: from the E (80 degrees) at 12 MPH (10 knots; 5.1 m/s)
Visibility: 6 or more miles 10+ km)
Ceiling: at least 12,000 feet AGL
Clouds: scattered clouds at 2300 feet AGL
Weather: no significant weather forecast for this period
Text: BECMG 1915/1918 VRB05KT
Forecast period: 1500 UTC 19 March 2019 to 0000 UTC 20 March 2019
Forecast type: BECOMING: Conditions expected to become as follows by 1800 UTC 19 March 2019
Winds: variable direction winds at 6 MPH (5 knots; 2.6 m/s)
Visibility: 6 or more miles 10+ km)
Ceiling: at least 12,000 feet AGL
Clouds: scattered clouds at 2300 feet AGL
Weather: no significant weather forecast for this period